Time;durP1;ratioP1;P1;durP2;ratioP2;P2;SDS_P1;SDS_P2;PMS_P1;PMS_P2;Temp;Humidity;BMP_temperature;BMP_pressure;BME280_temperature;BME280_humidity;BME280_pressure;Samples;Min_cycle;Max_cycle;Signal;HPM_P1;HPM_P2
2020/12/22 00:01:15;;;;;;;9.90;8.90;;;;;;;;;;5066956;28;20399;-77
2020/12/22 00:03:41;;;;;;;11.07;9.65;;;;;;;;;;5065810;28;20443;-76
2020/12/22 00:06:07;;;;;;;10.88;9.82;;;;;;;;;;5066190;28;20392;-76
2020/12/22 00:08:33;;;;;;;11.20;10.10;;;;;;;;;;5065156;28;20479;-76
2020/12/22 00:10:59;;;;;;;11.30;10.20;;;;;;;;;;5060068;28;20490;-76
2020/12/22 00:13:25;;;;;;;10.02;9.02;;;;;;;;;;5065785;28;20421;-76
2020/12/22 00:15:51;;;;;;;10.00;9.00;;;;;;;;;;5066094;28;20399;-76
2020/12/22 00:18:17;;;;;;;9.57;8.63;;;;;;;;;;5065863;28;20526;-76
2020/12/22 00:20:43;;;;;;;10.00;9.03;;;;;;;;;;5063352;28;20411;-77
2020/12/22 00:23:09;;;;;;;9.52;8.52;;;;;;;;;;5066195;28;20399;-77
2020/12/22 00:25:41;;;;;;;9.75;8.75;;;;;;;;;;5065454;28;20405;-76
2020/12/22 00:28:08;;;;;;;9.85;8.95;;;;;;;;;;5064178;28;20890;-76
2020/12/22 00:30:33;;;;;;;10.50;8.80;;;;;;;;;;5065454;28;20866;-76
2020/12/22 00:32:59;;;;;;;9.02;8.13;;;;;;;;;;5064347;28;20493;-76
2020/12/22 00:35:25;;;;;;;8.13;7.30;;;;;;;;;;5062173;28;20407;-76
2020/12/22 00:37:51;;;;;;;7.80;7.00;;;;;;;;;;5064817;28;20527;-77
2020/12/22 00:40:17;;;;;;;7.63;6.30;;;;;;;;;;5064214;28;20435;-76
2020/12/22 00:42:43;;;;;;;6.40;5.80;;;;;;;;;;5065780;28;20411;-76
2020/12/22 00:45:09;;;;;;;6.13;5.38;;;;;;;;;;5065368;28;20426;-76
2020/12/22 00:47:35;;;;;;;7.20;5.60;;;;;;;;;;5064828;28;20403;-76
2020/12/22 00:50:01;;;;;;;7.77;6.10;;;;;;;;;;5064642;28;20407;-76
2020/12/22 00:52:27;;;;;;;6.97;6.03;;;;;;;;;;5063254;28;20457;-76
2020/12/22 00:54:53;;;;;;;6.53;5.82;;;;;;;;;;5064337;28;20415;-76
2020/12/22 00:57:19;;;;;;;7.03;6.32;;;;;;;;;;5065362;28;20400;-76
2020/12/22 00:59:45;;;;;;;6.30;5.67;;;;;;;;;;5064931;28;20504;-77
2020/12/22 01:02:11;;;;;;;6.57;5.85;;;;;;;;;;5063453;28;20503;-76
2020/12/22 01:04:37;;;;;;;6.78;5.95;;;;;;;;;;5065368;28;20399;-76
2020/12/22 01:07:03;;;;;;;8.33;5.80;;;;;;;;;;5064818;28;20457;-76
2020/12/22 01:09:30;;;;;;;6.80;5.53;;;;;;;;;;5064138;28;20411;-77
2020/12/22 01:11:56;;;;;;;7.10;5.40;;;;;;;;;;5063004;28;21023;-77
2020/12/22 01:14:22;;;;;;;6.20;4.90;;;;;;;;;;5065255;28;20408;-76
2020/12/22 01:16:48;;;;;;;6.63;5.20;;;;;;;;;;5064538;28;20855;-76
2020/12/22 01:19:14;;;;;;;6.25;5.05;;;;;;;;;;5065104;28;20399;-76
2020/12/22 01:21:40;;;;;;;7.18;5.22;;;;;;;;;;5061891;28;20412;-76
2020/12/22 01:24:06;;;;;;;6.03;4.90;;;;;;;;;;5064635;28;20602;-77
2020/12/22 01:26:32;;;;;;;5.85;4.72;;;;;;;;;;5064333;28;20404;-76
2020/12/22 01:28:59;;;;;;;5.82;4.22;;;;;;;;;;5064187;28;20407;-76
2020/12/22 01:31:26;;;;;;;6.20;4.55;;;;;;;;;;5063654;28;20392;-76
2020/12/22 01:33:52;;;;;;;5.38;4.00;;;;;;;;;;5064220;28;20403;-76
2020/12/22 01:36:18;;;;;;;5.72;3.95;;;;;;;;;;5059931;28;20405;-77
2020/12/22 01:38:45;;;;;;;5.82;3.38;;;;;;;;;;5061896;28;20763;-76
2020/12/22 01:41:11;;;;;;;4.72;3.53;;;;;;;;;;5063967;28;20403;-77
2020/12/22 01:43:37;;;;;;;5.43;3.53;;;;;;;;;;5062439;28;20464;-76
2020/12/22 01:46:04;;;;;;;5.13;3.20;;;;;;;;;;5064097;28;20399;-76
2020/12/22 01:48:30;;;;;;;6.60;3.40;;;;;;;;;;5063636;28;20419;-77
2020/12/22 01:50:56;;;;;;;5.22;2.70;;;;;;;;;;5077595;28;20430;-76
2020/12/22 01:53:21;;;;;;;4.60;2.53;;;;;;;;;;5062391;28;20456;-76
2020/12/22 01:55:47;;;;;;;4.67;2.50;;;;;;;;;;5063346;28;20403;-77
2020/12/22 01:58:13;;;;;;;3.95;1.95;;;;;;;;;;5062705;28;20418;-76
2020/12/22 02:00:39;;;;;;;4.10;2.13;;;;;;;;;;5062228;28;20493;-77
2020/12/22 02:03:06;;;;;;;3.25;1.90;;;;;;;;;;5063945;28;20411;-76
2020/12/22 02:05:36;;;;;;;2.58;1.67;;;;;;;;;;5064151;28;20403;-76
2020/12/22 02:08:02;;;;;;;3.13;1.40;;;;;;;;;;5063200;28;20474;-76
2020/12/22 02:10:28;;;;;;;2.72;1.30;;;;;;;;;;5062925;28;20460;-77
2020/12/22 02:12:54;;;;;;;2.22;1.13;;;;;;;;;;5060532;28;21177;-77
2020/12/22 02:15:20;;;;;;;3.25;1.08;;;;;;;;;;5062465;28;20755;-77
2020/12/22 02:17:46;;;;;;;1.87;0.90;;;;;;;;;;5062219;28;20403;-77
2020/12/22 02:20:12;;;;;;;1.30;0.90;;;;;;;;;;5063199;28;20399;-77
2020/12/22 02:22:39;;;;;;;1.20;0.85;;;;;;;;;;5059502;28;20527;-77
2020/12/22 02:25:12;;;;;;;1.60;0.82;;;;;;;;;;5061022;28;20439;-77
2020/12/22 02:27:38;;;;;;;2.20;0.93;;;;;;;;;;5061006;28;20412;-76
2020/12/22 02:30:05;;;;;;;1.60;1.00;;;;;;;;;;5062937;28;20758;-76
2020/12/22 02:32:31;;;;;;;1.75;0.80;;;;;;;;;;5062176;28;20387;-76
2020/12/22 02:34:57;;;;;;;1.40;0.80;;;;;;;;;;5062565;28;20395;-76
2020/12/22 02:37:23;;;;;;;1.27;0.70;;;;;;;;;;5062433;28;20482;-76
2020/12/22 02:39:49;;;;;;;0.88;0.70;;;;;;;;;;5062763;28;20402;-76
2020/12/22 02:42:16;;;;;;;1.15;0.70;;;;;;;;;;5060931;28;20937;-77
2020/12/22 02:44:42;;;;;;;1.40;0.80;;;;;;;;;;5078822;28;20964;-76
2020/12/22 02:47:12;;;;;;;1.37;1.00;;;;;;;;;;5062856;28;20411;-76
2020/12/22 02:49:38;;;;;;;1.02;0.85;;;;;;;;;;5062690;28;21120;-77
2020/12/22 02:52:04;;;;;;;1.30;0.80;;;;;;;;;;5061177;28;20424;-76
2020/12/22 02:54:30;;;;;;;1.40;0.90;;;;;;;;;;5061759;28;20453;-76
2020/12/22 02:56:56;;;;;;;1.33;0.90;;;;;;;;;;5060569;28;20407;-76
2020/12/22 02:59:22;;;;;;;1.85;1.00;;;;;;;;;;5063009;28;20407;-77
2020/12/22 03:01:48;;;;;;;1.00;0.80;;;;;;;;;;5061617;28;20403;-76
2020/12/22 03:04:14;;;;;;;1.85;0.82;;;;;;;;;;5061360;28;20893;-77
2020/12/22 03:06:40;;;;;;;1.75;0.93;;;;;;;;;;5060278;28;20941;-76
2020/12/22 03:09:07;;;;;;;1.00;0.90;;;;;;;;;;5061023;28;20933;-77
2020/12/22 03:11:33;;;;;;;1.30;1.00;;;;;;;;;;5060922;28;20472;-77
2020/12/22 03:13:59;;;;;;;2.10;1.00;;;;;;;;;;5061316;28;20532;-76
2020/12/22 03:16:25;;;;;;;1.50;1.20;;;;;;;;;;5059842;28;20400;-77
2020/12/22 03:18:51;;;;;;;1.60;1.20;;;;;;;;;;5059296;28;20930;-77
2020/12/22 03:21:17;;;;;;;2.55;1.50;;;;;;;;;;5058043;28;21380;-76
2020/12/22 03:23:43;;;;;;;3.33;1.90;;;;;;;;;;5060769;28;20404;-77
2020/12/22 03:26:09;;;;;;;3.55;1.92;;;;;;;;;;5059488;28;20419;-77
2020/12/22 03:28:35;;;;;;;3.83;1.90;;;;;;;;;;5063604;28;20422;-76
2020/12/22 03:31:01;;;;;;;2.92;1.80;;;;;;;;;;5063529;28;20396;-77
2020/12/22 03:33:28;;;;;;;4.35;2.20;;;;;;;;;;5064580;28;20845;-76
2020/12/22 03:35:54;;;;;;;4.10;2.30;;;;;;;;;;5063561;28;20747;-77
2020/12/22 03:38:20;;;;;;;10.35;2.80;;;;;;;;;;5063644;28;21174;-76
2020/12/22 03:40:46;;;;;;;8.53;2.90;;;;;;;;;;5062968;28;20430;-77
2020/12/22 03:43:12;;;;;;;4.97;2.53;;;;;;;;;;5064034;28;20682;-76
2020/12/22 03:45:38;;;;;;;4.80;2.58;;;;;;;;;;5063286;28;20396;-76
2020/12/22 03:48:04;;;;;;;6.25;2.58;;;;;;;;;;5064077;28;20399;-76
2020/12/22 03:50:30;;;;;;;6.45;2.67;;;;;;;;;;5060788;28;20451;-78
2020/12/22 03:53:03;;;;;;;9.00;2.80;;;;;;;;;;5059603;28;20466;-77
2020/12/22 03:55:28;;;;;;;9.77;2.58;;;;;;;;;;5061149;28;20435;-76
2020/12/22 03:57:54;;;;;;;7.00;2.60;;;;;;;;;;5063649;28;20435;-77
2020/12/22 04:00:21;;;;;;;7.30;2.57;;;;;;;;;;5063741;28;20420;-77
2020/12/22 04:02:47;;;;;;;7.07;2.72;;;;;;;;;;5063885;28;20457;-76
2020/12/22 04:05:13;;;;;;;6.78;2.45;;;;;;;;;;5063116;28;20407;-77
2020/12/22 04:07:39;;;;;;;5.90;2.53;;;;;;;;;;5064035;28;20469;-77
2020/12/22 04:10:08;;;;;;;7.57;2.75;;;;;;;;;;5063829;28;20404;-77
2020/12/22 04:12:35;;;;;;;7.43;2.45;;;;;;;;;;5060940;28;20396;-77
2020/12/22 04:15:01;;;;;;;7.07;2.33;;;;;;;;;;5063404;28;20416;-77
2020/12/22 04:17:27;;;;;;;7.38;2.35;;;;;;;;;;5064820;28;20404;-77
2020/12/22 04:19:53;;;;;;;6.93;2.30;;;;;;;;;;5062520;28;20449;-77
2020/12/22 04:22:19;;;;;;;8.53;2.40;;;;;;;;;;5059845;28;20864;-77
2020/12/22 04:24:45;;;;;;;7.47;2.38;;;;;;;;;;5063770;28;20559;-77
2020/12/22 04:27:11;;;;;;;8.13;2.38;;;;;;;;;;5063446;28;20435;-77
2020/12/22 04:29:37;;;;;;;7.38;2.33;;;;;;;;;;5062524;28;20411;-77
2020/12/22 04:32:03;;;;;;;10.27;2.93;;;;;;;;;;5062932;28;20403;-77
2020/12/22 04:34:29;;;;;;;9.45;2.80;;;;;;;;;;5058488;28;20418;-77
2020/12/22 04:36:55;;;;;;;10.88;3.15;;;;;;;;;;5062859;28;20909;-76
2020/12/22 04:39:21;;;;;;;9.80;2.95;;;;;;;;;;5062141;28;20411;-76
2020/12/22 04:41:48;;;;;;;13.45;3.05;;;;;;;;;;5062577;28;20800;-77
2020/12/22 04:44:18;;;;;;;11.27;2.70;;;;;;;;;;5063081;28;20769;-76
2020/12/22 04:46:49;;;;;;;8.95;2.78;;;;;;;;;;5063864;28;20407;-77
2020/12/22 04:49:16;;;;;;;9.23;2.70;;;;;;;;;;5059689;28;20503;-76
2020/12/22 04:51:42;;;;;;;8.77;2.30;;;;;;;;;;5057752;28;20950;-77
2020/12/22 04:54:08;;;;;;;10.98;2.63;;;;;;;;;;5061376;28;20465;-77
2020/12/22 04:56:36;;;;;;;9.60;2.58;;;;;;;;;;5062507;28;20396;-76
2020/12/22 04:59:02;;;;;;;7.70;2.35;;;;;;;;;;5058357;28;20407;-77
2020/12/22 05:01:28;;;;;;;9.60;2.57;;;;;;;;;;5061503;28;20404;-77
2020/12/22 05:03:54;;;;;;;9.80;2.53;;;;;;;;;;5061729;28;20409;-77
2020/12/22 05:06:20;;;;;;;9.77;2.60;;;;;;;;;;5062722;28;20692;-76
2020/12/22 05:08:46;;;;;;;12.00;2.75;;;;;;;;;;5061143;28;20416;-77
2020/12/22 05:11:16;;;;;;;10.40;2.40;;;;;;;;;;5061422;28;20476;-76
2020/12/22 05:13:42;;;;;;;7.63;2.70;;;;;;;;;;5061360;28;20411;-77
2020/12/22 05:16:09;;;;;;;8.55;2.50;;;;;;;;;;5059661;28;20415;-76
2020/12/22 05:18:35;;;;;;;9.75;2.85;;;;;;;;;;5061702;28;20407;-77
2020/12/22 05:21:01;;;;;;;10.38;2.63;;;;;;;;;;5059799;28;20404;-77
2020/12/22 05:23:29;;;;;;;6.60;2.30;;;;;;;;;;5061146;28;20418;-76
2020/12/22 05:25:55;;;;;;;9.32;2.53;;;;;;;;;;5061752;28;20883;-77
2020/12/22 05:28:22;;;;;;;7.93;2.42;;;;;;;;;;5062663;28;20882;-77
2020/12/22 05:30:49;;;;;;;11.35;2.63;;;;;;;;;;5062336;28;20417;-76
2020/12/22 05:33:15;;;;;;;9.10;2.72;;;;;;;;;;5061987;28;20400;-77
2020/12/22 05:35:44;;;;;;;11.05;2.65;;;;;;;;;;5056490;28;20406;-77
2020/12/22 05:38:10;;;;;;;9.73;2.78;;;;;;;;;;5077631;28;20391;-77
2020/12/22 05:40:38;;;;;;;10.85;2.65;;;;;;;;;;5062030;28;20403;-77
2020/12/22 05:43:05;;;;;;;13.82;3.35;;;;;;;;;;5061897;28;20906;-76
2020/12/22 05:45:34;;;;;;;10.70;3.15;;;;;;;;;;5061856;28;20395;-77
2020/12/22 05:48:01;;;;;;;10.95;3.25;;;;;;;;;;5062389;28;20395;-77
2020/12/22 05:50:27;;;;;;;10.45;2.50;;;;;;;;;;5060823;28;20472;-76
2020/12/22 05:52:54;;;;;;;12.90;2.75;;;;;;;;;;5060288;28;20912;-77
2020/12/22 05:55:30;;;;;;;10.63;3.15;;;;;;;;;;5061624;28;20882;-76
2020/12/22 05:58:09;;;;;;;13.18;3.00;;;;;;;;;;5060612;28;20435;-77
2020/12/22 06:00:35;;;;;;;12.40;3.38;;;;;;;;;;5061738;28;20406;-77
2020/12/22 06:03:06;;;;;;;10.23;2.75;;;;;;;;;;5061552;28;20411;-77
2020/12/22 06:05:35;;;;;;;11.40;2.95;;;;;;;;;;5060250;28;20909;-76
2020/12/22 06:08:01;;;;;;;10.23;3.25;;;;;;;;;;5062214;28;20486;-77
2020/12/22 06:10:27;;;;;;;13.55;3.28;;;;;;;;;;5058220;28;20550;-77
2020/12/22 06:12:57;;;;;;;12.27;3.53;;;;;;;;;;5058970;28;20671;-77
2020/12/22 06:15:24;;;;;;;13.07;4.07;;;;;;;;;;5060660;28;21026;-76
2020/12/22 06:17:50;;;;;;;10.68;3.50;;;;;;;;;;5062287;28;20464;-77
2020/12/22 06:20:18;;;;;;;11.65;3.60;;;;;;;;;;5059313;28;20965;-77
2020/12/22 06:22:44;;;;;;;13.93;3.90;;;;;;;;;;5060001;28;20411;-76
2020/12/22 06:25:10;;;;;;;11.25;3.22;;;;;;;;;;5060461;28;20418;-77
2020/12/22 06:27:36;;;;;;;13.90;3.47;;;;;;;;;;5061437;28;20478;-76
2020/12/22 06:30:02;;;;;;;11.60;3.80;;;;;;;;;;5059829;28;20479;-76
2020/12/22 06:32:28;;;;;;;11.40;3.33;;;;;;;;;;5058913;28;20399;-77
2020/12/22 06:34:55;;;;;;;14.23;3.53;;;;;;;;;;5061203;28;20494;-77
2020/12/22 06:37:45;;;;;;;12.57;3.30;;;;;;;;;;5061559;28;20427;-76
2020/12/22 06:40:11;;;;;;;12.70;3.67;;;;;;;;;;5057650;28;20442;-76
2020/12/22 06:42:39;;;;;;;9.85;3.05;;;;;;;;;;5061756;28;20408;-77
2020/12/22 06:45:26;;;;;;;12.93;3.45;;;;;;;;;;5059511;28;20503;-77
2020/12/22 06:47:52;;;;;;;11.53;3.13;;;;;;;;;;5060074;28;20426;-76
2020/12/22 06:50:37;;;;;;;11.18;3.20;;;;;;;;;;5060074;28;20411;-77
2020/12/22 06:53:03;;;;;;;10.25;3.30;;;;;;;;;;5061069;28;20410;-76
2020/12/22 06:55:48;;;;;;;14.23;3.60;;;;;;;;;;5059547;28;20399;-76
2020/12/22 06:58:33;;;;;;;12.93;3.45;;;;;;;;;;5061322;28;20387;-76
2020/12/22 07:00:59;;;;;;;12.25;3.40;;;;;;;;;;5060886;28;20410;-77
2020/12/22 07:03:25;;;;;;;11.68;3.50;;;;;;;;;;5065220;28;20883;-76
2020/12/22 07:05:51;;;;;;;12.07;3.38;;;;;;;;;;5062436;28;20632;-76
2020/12/22 07:08:18;;;;;;;9.93;3.40;;;;;;;;;;5063572;28;20407;-76
2020/12/22 07:10:45;;;;;;;11.20;3.60;;;;;;;;;;5063773;28;20917;-77
2020/12/22 07:13:12;;;;;;;12.27;3.70;;;;;;;;;;5064236;28;20403;-76
2020/12/22 07:15:45;;;;;;;14.68;3.92;;;;;;;;;;5064053;28;20439;-76
2020/12/22 07:18:13;;;;;;;12.02;3.33;;;;;;;;;;5064307;28;20415;-76
2020/12/22 07:20:39;;;;;;;13.85;3.67;;;;;;;;;;5062448;28;20403;-77
2020/12/22 07:23:05;;;;;;;11.97;3.37;;;;;;;;;;5062389;28;20417;-76
2020/12/22 07:25:32;;;;;;;13.52;3.45;;;;;;;;;;5064474;28;20395;-77
2020/12/22 07:27:58;;;;;;;14.10;3.40;;;;;;;;;;5053326;28;20707;-76
2020/12/22 07:30:24;;;;;;;14.60;3.28;;;;;;;;;;5063311;28;20687;-76
2020/12/22 07:32:51;;;;;;;11.95;3.28;;;;;;;;;;5063306;28;20405;-76
2020/12/22 07:35:18;;;;;;;13.55;3.65;;;;;;;;;;5063816;28;20435;-77
2020/12/22 07:37:44;;;;;;;13.75;3.47;;;;;;;;;;5063946;28;20825;-76
2020/12/22 07:40:12;;;;;;;10.85;3.03;;;;;;;;;;5063317;28;20919;-76
2020/12/22 07:42:38;;;;;;;15.27;3.63;;;;;;;;;;5063456;28;20410;-77
2020/12/22 07:45:06;;;;;;;11.13;3.17;;;;;;;;;;5080626;28;20743;-76
2020/12/22 07:47:32;;;;;;;13.13;3.50;;;;;;;;;;5062335;28;20411;-77
2020/12/22 07:50:11;;;;;;;11.77;3.35;;;;;;;;;;5064295;28;20411;-76
2020/12/22 07:52:37;;;;;;;12.75;3.40;;;;;;;;;;5062875;28;20525;-77
2020/12/22 07:55:03;;;;;;;10.82;3.28;;;;;;;;;;5063708;28;21091;-76
2020/12/22 07:57:31;;;;;;;15.75;3.58;;;;;;;;;;5061441;28;20403;-77
2020/12/22 08:00:07;;;;;;;11.88;3.20;;;;;;;;;;5064438;28;20457;-76
2020/12/22 08:02:33;;;;;;;11.63;3.10;;;;;;;;;;5063006;28;20426;-76
2020/12/22 08:05:12;;;;;;;14.07;3.80;;;;;;;;;;5054282;28;20406;-77
2020/12/22 08:07:41;;;;;;;13.73;3.65;;;;;;;;;;5061973;28;21101;-76
2020/12/22 08:10:13;;;;;;;10.30;3.40;;;;;;;;;;5063099;28;20906;-77
2020/12/22 08:12:39;;;;;;;11.40;3.57;;;;;;;;;;5060658;28;20492;-76
2020/12/22 08:15:08;;;;;;;11.80;3.30;;;;;;;;;;5063202;28;20840;-76
2020/12/22 08:17:41;;;;;;;10.52;3.20;;;;;;;;;;5061431;28;20758;-76
2020/12/22 08:20:07;;;;;;;13.55;3.60;;;;;;;;;;5062331;28;20832;-76
2020/12/22 08:22:35;;;;;;;11.95;3.50;;;;;;;;;;5073680;28;20424;-77
2020/12/22 08:25:01;;;;;;;12.25;3.58;;;;;;;;;;5062506;28;20948;-76
2020/12/22 08:27:29;;;;;;;10.90;3.38;;;;;;;;;;5064797;28;20415;-76
2020/12/22 08:29:55;;;;;;;12.50;3.50;;;;;;;;;;5063403;28;20502;-77
2020/12/22 08:32:25;;;;;;;11.07;3.53;;;;;;;;;;5064057;28;20836;-79
2020/12/22 08:34:54;;;;;;;13.63;4.00;;;;;;;;;;5065874;28;20853;-76
2020/12/22 08:37:27;;;;;;;12.75;3.47;;;;;;;;;;5067690;28;21030;-77
2020/12/22 08:39:53;;;;;;;11.20;3.55;;;;;;;;;;5065281;28;20482;-76
2020/12/22 08:42:20;;;;;;;13.00;3.78;;;;;;;;;;5076156;28;20453;-76
2020/12/22 08:44:51;;;;;;;12.90;3.88;;;;;;;;;;5062211;28;20437;-77
2020/12/22 08:47:18;;;;;;;14.63;4.03;;;;;;;;;;5058633;28;20396;-76
2020/12/22 08:49:44;;;;;;;12.02;3.88;;;;;;;;;;5067325;28;20403;-76
2020/12/22 08:52:11;;;;;;;11.03;3.70;;;;;;;;;;5063645;28;20395;-76
2020/12/22 08:54:37;;;;;;;10.60;3.30;;;;;;;;;;5067632;28;20739;-77
2020/12/22 08:57:23;;;;;;;12.65;3.40;;;;;;;;;;5067743;28;20395;-76
2020/12/22 08:59:49;;;;;;;11.68;3.42;;;;;;;;;;5068113;28;20475;-76
2020/12/22 11:03:41;;;;;;;28.77;12.93;;;;;;;;;;5119747;27;20420;-82
2020/12/22 11:06:22;;;;;;;28.90;12.23;;;;;;;;;;5080704;28;20467;-81
2020/12/22 11:08:48;;;;;;;23.58;10.77;;;;;;;;;;5072299;28;20411;-85
2020/12/22 11:11:18;;;;;;;16.27;8.75;;;;;;;;;;5080503;28;20454;-84
2020/12/22 11:13:44;;;;;;;24.92;9.60;;;;;;;;;;5080964;28;20395;-86
2020/12/22 11:16:10;;;;;;;20.27;9.20;;;;;;;;;;5084863;28;20518;-84
2020/12/22 11:18:37;;;;;;;21.27;9.38;;;;;;;;;;5082334;28;20533;-85
2020/12/22 11:21:11;;;;;;;21.65;9.43;;;;;;;;;;5068022;28;20761;-83
2020/12/22 11:23:37;;;;;;;23.20;10.82;;;;;;;;;;5073970;28;20397;-74
2020/12/22 11:26:03;;;;;;;20.40;9.27;;;;;;;;;;5083706;28;20480;-74
2020/12/22 11:30:50;;;;;;;19.90;8.10;;;;;;;;;;5108236;27;20944;-73
2020/12/22 11:33:16;;;;;;;16.58;7.05;;;;;;;;;;5089025;28;20412;-73
2020/12/22 11:35:42;;;;;;;17.47;8.27;;;;;;;;;;5085549;28;20560;-72
2020/12/22 11:38:07;;;;;;;19.45;8.40;;;;;;;;;;5084542;28;21071;-73
2020/12/22 11:40:34;;;;;;;20.20;8.45;;;;;;;;;;5085635;28;20820;-73
2020/12/22 11:42:59;;;;;;;20.98;9.15;;;;;;;;;;5084349;28;20378;-73
2020/12/22 11:45:25;;;;;;;21.35;9.30;;;;;;;;;;5084264;28;20371;-73
2020/12/22 11:47:51;;;;;;;19.73;8.48;;;;;;;;;;5084846;28;20403;-73
2020/12/22 11:50:18;;;;;;;20.67;8.05;;;;;;;;;;5083918;28;20422;-73
2020/12/22 11:52:44;;;;;;;21.33;8.32;;;;;;;;;;5076472;28;21076;-73
2020/12/22 11:55:10;;;;;;;18.80;7.53;;;;;;;;;;5084710;28;20399;-73
2020/12/22 11:57:36;;;;;;;20.60;7.45;;;;;;;;;;5083187;28;20414;-73
2020/12/22 12:00:03;;;;;;;17.33;7.63;;;;;;;;;;5084338;28;20395;-73
2020/12/22 12:02:29;;;;;;;21.90;7.32;;;;;;;;;;5065975;28;20383;-73
2020/12/22 12:04:55;;;;;;;19.25;7.50;;;;;;;;;;5083436;28;20402;-73
2020/12/22 12:07:21;;;;;;;17.23;7.73;;;;;;;;;;5083794;28;20820;-73
2020/12/22 12:09:47;;;;;;;18.40;7.80;;;;;;;;;;5095216;28;20743;-73
2020/12/22 12:12:13;;;;;;;19.77;8.30;;;;;;;;;;5083801;28;20729;-73
2020/12/22 12:14:39;;;;;;;25.80;8.85;;;;;;;;;;5083723;28;20818;-73
2020/12/22 12:17:05;;;;;;;21.47;8.23;;;;;;;;;;5084478;28;20359;-73
2020/12/22 12:19:32;;;;;;;23.67;8.45;;;;;;;;;;5082753;28;20432;-73
2020/12/22 12:21:58;;;;;;;19.88;7.85;;;;;;;;;;5083969;28;20421;-73
2020/12/22 12:24:24;;;;;;;18.02;7.95;;;;;;;;;;5083128;28;20379;-73
2020/12/22 12:26:51;;;;;;;16.80;7.23;;;;;;;;;;5077445;28;20444;-73
2020/12/22 12:29:17;;;;;;;23.38;8.77;;;;;;;;;;5092134;28;20419;-72
2020/12/22 12:31:45;;;;;;;24.30;8.38;;;;;;;;;;5083284;28;20441;-73
2020/12/22 12:34:12;;;;;;;19.00;8.13;;;;;;;;;;5083232;28;20513;-73
2020/12/22 12:36:38;;;;;;;19.98;7.82;;;;;;;;;;5083039;28;20481;-73
2020/12/22 12:39:04;;;;;;;21.40;7.97;;;;;;;;;;5083606;28;20825;-73
2020/12/22 12:41:30;;;;;;;22.17;8.57;;;;;;;;;;5073561;28;20379;-73
2020/12/22 12:43:56;;;;;;;19.55;8.35;;;;;;;;;;5069861;28;20392;-73
2020/12/22 12:46:22;;;;;;;21.03;9.27;;;;;;;;;;5051526;28;20872;-73
2020/12/22 12:48:48;;;;;;;20.88;8.77;;;;;;;;;;5051738;28;20857;-73
2020/12/22 12:51:14;;;;;;;20.77;9.55;;;;;;;;;;5065837;28;20403;-72
2020/12/22 12:53:40;;;;;;;22.37;8.83;;;;;;;;;;5069786;28;20379;-73
2020/12/22 12:56:06;;;;;;;20.08;8.45;;;;;;;;;;5069923;28;20897;-72
2020/12/22 12:58:32;;;;;;;20.60;8.87;;;;;;;;;;5069109;28;20633;-72
2020/12/22 13:00:58;;;;;;;20.75;8.73;;;;;;;;;;5071273;28;20380;-73
2020/12/22 13:03:24;;;;;;;20.07;8.53;;;;;;;;;;5067921;28;20422;-73
2020/12/22 13:05:50;;;;;;;18.48;8.25;;;;;;;;;;5051970;28;20437;-73
2020/12/22 13:08:16;;;;;;;20.42;9.30;;;;;;;;;;5068700;28;20851;-73
2020/12/22 13:10:42;;;;;;;18.03;9.03;;;;;;;;;;5069755;28;20448;-73
2020/12/22 13:13:08;;;;;;;18.38;10.70;;;;;;;;;;5068825;28;20391;-72
2020/12/22 13:15:34;;;;;;;26.13;16.23;;;;;;;;;;5069126;28;20878;-73
2020/12/22 13:18:00;;;;;;;24.05;11.38;;;;;;;;;;5070654;28;20360;-73
2020/12/22 13:20:26;;;;;;;27.27;17.58;;;;;;;;;;5068470;28;20403;-73
2020/12/22 13:22:52;;;;;;;30.00;17.13;;;;;;;;;;5069701;28;20368;-73
2020/12/22 13:25:18;;;;;;;27.63;16.25;;;;;;;;;;5068701;28;20364;-72
2020/12/22 13:27:44;;;;;;;21.73;12.27;;;;;;;;;;5069526;28;20376;-73
2020/12/22 13:30:10;;;;;;;24.60;13.55;;;;;;;;;;5068549;28;20881;-73
2020/12/22 13:32:36;;;;;;;20.50;10.95;;;;;;;;;;5068546;28;20364;-72
2020/12/22 13:35:02;;;;;;;20.55;11.27;;;;;;;;;;5070282;28;20802;-73
2020/12/22 13:37:28;;;;;;;19.48;9.73;;;;;;;;;;5068649;28;20442;-73
2020/12/22 13:39:54;;;;;;;22.42;9.60;;;;;;;;;;5059792;28;20403;-73
2020/12/22 13:42:20;;;;;;;17.75;10.02;;;;;;;;;;5068088;28;20372;-73
2020/12/22 13:44:46;;;;;;;18.27;9.63;;;;;;;;;;5069129;28;21036;-73
2020/12/22 13:47:12;;;;;;;22.55;10.68;;;;;;;;;;5067594;28;20387;-73
2020/12/22 13:49:38;;;;;;;23.45;10.10;;;;;;;;;;5068618;28;20464;-73
2020/12/22 13:52:04;;;;;;;21.55;10.02;;;;;;;;;;5073415;28;20403;-73
2020/12/22 13:54:30;;;;;;;20.45;10.52;;;;;;;;;;5067854;28;20458;-73
2020/12/22 13:56:56;;;;;;;21.90;11.30;;;;;;;;;;5068658;28;20394;-72
2020/12/22 13:59:22;;;;;;;20.58;10.63;;;;;;;;;;5067606;28;20380;-73
2020/12/22 14:01:48;;;;;;;19.73;10.77;;;;;;;;;;5068281;28;20375;-73
2020/12/22 14:04:14;;;;;;;22.92;9.82;;;;;;;;;;5049892;28;20530;-73
2020/12/22 14:06:40;;;;;;;22.48;10.07;;;;;;;;;;5068581;28;20467;-73
2020/12/22 14:09:06;;;;;;;21.08;10.75;;;;;;;;;;5073358;28;20399;-73
2020/12/22 14:11:32;;;;;;;18.90;10.15;;;;;;;;;;5068076;28;20391;-73
2020/12/22 14:13:58;;;;;;;20.33;9.68;;;;;;;;;;5067966;28;20360;-73
2020/12/22 14:16:24;;;;;;;18.30;8.95;;;;;;;;;;5067293;28;20710;-73
2020/12/22 14:18:50;;;;;;;19.48;9.68;;;;;;;;;;5068688;28;20756;-73
2020/12/22 14:21:16;;;;;;;20.17;9.80;;;;;;;;;;5067217;28;20376;-72
2020/12/22 14:23:42;;;;;;;17.15;9.73;;;;;;;;;;5068458;28;20458;-73
2020/12/22 14:26:09;;;;;;;22.67;10.00;;;;;;;;;;5073017;28;20486;-73
2020/12/22 14:28:35;;;;;;;23.50;10.32;;;;;;;;;;5068028;28;20380;-72
2020/12/22 14:31:01;;;;;;;23.17;11.10;;;;;;;;;;5066587;28;20849;-73
2020/12/22 14:33:27;;;;;;;21.35;10.15;;;;;;;;;;5081053;28;20424;-74
2020/12/22 14:35:55;;;;;;;17.55;9.60;;;;;;;;;;5070912;28;20407;-73
2020/12/22 14:38:21;;;;;;;18.35;9.77;;;;;;;;;;5066997;28;21030;-74
2020/12/22 14:40:47;;;;;;;20.15;10.10;;;;;;;;;;5066933;28;20453;-72
2020/12/22 14:43:13;;;;;;;20.65;10.07;;;;;;;;;;5067968;28;20400;-73
2020/12/22 14:45:38;;;;;;;17.60;10.13;;;;;;;;;;5050345;28;20408;-71
2020/12/22 14:48:04;;;;;;;19.00;9.70;;;;;;;;;;5064806;28;20391;-73
2020/12/22 14:50:30;;;;;;;20.35;10.35;;;;;;;;;;5072478;28;20413;-74
2020/12/22 14:52:56;;;;;;;17.15;9.93;;;;;;;;;;5074643;28;20861;-73
2020/12/22 14:55:22;;;;;;;20.90;10.90;;;;;;;;;;5070720;28;20449;-73
2020/12/22 14:57:48;;;;;;;20.55;9.43;;;;;;;;;;5071493;28;20404;-73
2020/12/22 15:00:15;;;;;;;19.20;10.77;;;;;;;;;;5069540;28;20457;-73
2020/12/22 15:02:41;;;;;;;20.10;10.52;;;;;;;;;;5076744;28;20995;-73
2020/12/22 15:05:07;;;;;;;19.63;10.50;;;;;;;;;;5070800;28;20404;-73
2020/12/22 15:07:34;;;;;;;18.70;10.93;;;;;;;;;;5071811;28;20388;-73
2020/12/22 15:10:00;;;;;;;20.50;10.43;;;;;;;;;;5068590;28;20411;-73
2020/12/22 15:12:26;;;;;;;17.88;9.88;;;;;;;;;;5071309;28;20726;-73
2020/12/22 15:14:51;;;;;;;22.23;12.03;;;;;;;;;;5072510;28;20770;-73
2020/12/22 15:17:17;;;;;;;19.90;9.10;;;;;;;;;;5075475;28;21068;-73
2020/12/22 15:19:43;;;;;;;13.70;6.25;;;;;;;;;;5071271;28;20793;-72
2020/12/22 15:22:10;;;;;;;16.93;7.53;;;;;;;;;;5070194;28;20750;-73
2020/12/22 15:24:35;;;;;;;18.55;6.65;;;;;;;;;;5067521;28;20456;-72
2020/12/22 15:27:01;;;;;;;14.60;6.57;;;;;;;;;;5071956;28;20486;-73
2020/12/22 15:29:27;;;;;;;16.47;5.90;;;;;;;;;;5073502;28;20431;-72
2020/12/22 15:31:54;;;;;;;14.85;4.43;;;;;;;;;;5069814;28;20386;-72
2020/12/22 15:34:20;;;;;;;9.63;3.88;;;;;;;;;;5075677;28;20486;-72
2020/12/22 15:36:46;;;;;;;13.48;3.97;;;;;;;;;;5070768;28;20456;-73
2020/12/22 15:39:12;;;;;;;14.77;4.75;;;;;;;;;;5068415;28;20448;-72
2020/12/22 15:41:38;;;;;;;12.38;3.97;;;;;;;;;;5066886;28;20869;-73
2020/12/22 15:44:04;;;;;;;17.75;4.65;;;;;;;;;;5067417;28;20410;-73
2020/12/22 15:46:30;;;;;;;17.95;5.07;;;;;;;;;;5073214;28;21140;-73
2020/12/22 15:48:56;;;;;;;13.60;4.78;;;;;;;;;;5068116;28;20427;-73
2020/12/22 15:51:22;;;;;;;13.30;4.88;;;;;;;;;;5072019;28;20412;-73
2020/12/22 15:53:48;;;;;;;15.75;6.10;;;;;;;;;;5070418;28;20395;-72
2020/12/22 15:56:14;;;;;;;19.23;6.93;;;;;;;;;;5068862;28;20411;-73
2020/12/22 15:58:40;;;;;;;19.42;7.30;;;;;;;;;;5066094;28;20410;-73
2020/12/22 16:01:06;;;;;;;21.10;6.32;;;;;;;;;;5058193;28;20402;-72
2020/12/22 16:03:32;;;;;;;14.50;6.50;;;;;;;;;;5079965;28;20448;-72
2020/12/22 16:06:02;;;;;;;16.45;8.82;;;;;;;;;;5073663;28;20732;-73
2020/12/22 16:08:28;;;;;;;19.38;9.02;;;;;;;;;;5077876;28;20392;-73
2020/12/22 16:10:54;;;;;;;15.00;7.90;;;;;;;;;;5073192;28;20453;-73
2020/12/22 16:13:20;;;;;;;17.50;7.22;;;;;;;;;;5068839;28;20733;-72
2020/12/22 16:15:46;;;;;;;16.70;6.45;;;;;;;;;;5070969;28;20406;-72
2020/12/22 16:18:12;;;;;;;16.50;6.50;;;;;;;;;;5071970;28;20464;-73
2020/12/22 16:20:38;;;;;;;18.88;6.75;;;;;;;;;;5073798;28;20476;-72
2020/12/22 16:23:04;;;;;;;14.20;5.88;;;;;;;;;;5077176;28;20399;-73
2020/12/22 16:25:30;;;;;;;14.43;5.60;;;;;;;;;;5081839;28;20393;-74
2020/12/22 16:27:56;;;;;;;12.37;5.57;;;;;;;;;;5074047;28;20564;-73
2020/12/22 16:30:22;;;;;;;19.00;6.20;;;;;;;;;;5077357;28;20462;-73
2020/12/22 16:32:48;;;;;;;14.77;6.65;;;;;;;;;;5079612;28;20382;-72
2020/12/22 16:35:14;;;;;;;12.68;6.53;;;;;;;;;;5078896;28;20385;-72